Time,TemperatureF,DewpointF,PressureIn,WindDirection,WindDirectionDegrees,WindSpeedMPH,WindSpeedGustMPH,Humidity,HourlyPrecipIn,Conditions,Clouds,dailyrainin,SoftwareType,DateUTC
2013-09-26 08:52:00,56.0,55.0,30.06,SSE,166,0.0,0.0,96,0.00,,,0.00,,2013-09-26 12:52:00,
2013-09-26 09:12:00,57.0,56.0,30.06,SSE,165,0.0,0.0,96,0.00,,,0.00,,2013-09-26 13:12:00,
2013-09-26 09:22:00,59.0,58.0,30.06,SSE,166,0.0,0.0,97,0.00,,,0.00,,2013-09-26 13:22:00,
2013-09-26 09:52:00,63.0,62.0,30.07,SSE,168,0.0,1.0,95,0.00,,,0.00,,2013-09-26 13:52:00,
2013-09-26 10:11:00,65.0,62.0,30.07,SW,219,0.0,5.0,91,0.00,,,0.00,,2013-09-26 14:11:00,
2013-09-26 10:22:00,66.0,61.0,30.08,West,262,0.0,5.0,83,0.00,,,0.00,,2013-09-26 14:22:00,
2013-09-26 10:42:00,67.0,61.0,30.08,SW,225,0.0,2.0,81,0.00,,,0.00,,2013-09-26 14:42:00,
2013-09-26 10:52:00,68.0,61.0,30.08,SW,234,1.0,5.0,78,0.00,,,0.00,,2013-09-26 14:52:00,
2013-09-26 11:11:00,68.0,60.0,30.08,South,190,1.0,4.0,76,0.00,,,0.00,,2013-09-26 15:11:00,
2013-09-26 11:22:00,69.0,60.0,30.09,SW,236,1.0,4.0,74,0.00,,,0.00,,2013-09-26 15:22:00,
2013-09-26 11:44:00,70.0,60.0,30.09,SW,222,1.0,4.0,71,0.00,,,0.00,,2013-09-26 15:44:00,
2013-09-26 11:54:00,71.0,60.0,30.09,WNW,303,0.0,3.0,69,0.00,,,0.00,,2013-09-26 15:54:00,
2013-09-26 12:13:00,70.0,59.0,30.09,SW,215,0.0,2.0,69,0.00,,,0.00,,2013-09-26 16:13:00,
2013-09-26 12:24:00,71.0,59.0,30.09,SW,219,3.0,5.0,67,0.00,,,0.00,,2013-09-26 16:24:00,
2013-09-26 12:43:00,71.0,59.0,30.08,SSE,156,0.0,6.0,66,0.00,,,0.00,,2013-09-26 16:43:00,
2013-09-26 12:54:00,72.0,60.0,30.08,SW,233,2.0,6.0,65,0.00,,,0.00,,2013-09-26 16:54:00,
2013-09-26 13:04:00,72.0,60.0,30.08,SW,233,2.0,6.0,65,0.00,,,0.00,,2013-09-26 17:04:00,
2013-09-26 13:12:00,72.0,60.0,30.08,SW,233,2.0,6.0,65,0.00,,,0.00,,2013-09-26 17:12:00,
2013-09-26 13:23:00,72.0,59.0,30.08,East,90,0.0,6.0,64,0.00,,,0.00,,2013-09-26 17:23:00,
2013-09-26 13:53:00,73.0,60.0,30.07,SSW,207,3.0,6.0,63,0.00,,,0.00,,2013-09-26 17:53:00,
2013-09-26 14:13:00,73.0,59.0,30.07,West,275,0.0,7.0,62,0.00,,,0.00,,2013-09-26 18:13:00,
2013-09-26 14:22:00,73.0,58.0,30.06,East,96,0.0,2.0,60,0.00,,,0.00,,2013-09-26 18:22:00,
2013-09-26 14:42:00,74.0,59.0,30.06,WSW,246,1.0,5.0,60,0.00,,,0.00,,2013-09-26 18:42:00,
2013-09-26 14:52:00,73.0,58.0,30.06,SW,216,0.0,5.0,60,0.00,,,0.00,,2013-09-26 18:52:00,
2013-09-26 15:12:00,73.0,59.0,30.06,SW,229,1.0,5.0,62,0.00,,,0.00,,2013-09-26 19:12:00,
2013-09-26 15:22:00,74.0,60.0,30.06,South,180,2.0,5.0,61,0.00,,,0.00,,2013-09-26 19:22:00,
2013-09-26 15:52:00,76.0,58.0,30.06,WSW,246,0.0,6.0,54,0.00,,,0.00,,2013-09-26 19:52:00,
2013-09-26 16:12:00,76.0,58.0,30.06,NNW,333,1.0,5.0,54,0.00,,,0.00,,2013-09-26 20:12:00,
2013-09-26 16:22:00,76.0,59.0,30.06,West,259,1.0,7.0,55,0.00,,,0.00,,2013-09-26 20:22:00,
2013-09-26 16:43:00,75.0,59.0,30.06,SW,226,1.0,5.0,57,0.00,,,0.00,,2013-09-26 20:43:00,
2013-09-26 16:52:00,74.0,58.0,30.07,SW,221,1.0,7.0,57,0.00,,,0.00,,2013-09-26 20:52:00,
2013-09-26 17:12:00,74.0,58.0,30.06,WSW,244,0.0,5.0,57,0.00,,,0.00,,2013-09-26 21:12:00,
2013-09-26 17:23:00,73.0,58.0,30.07,ENE,78,1.0,4.0,60,0.00,,,0.00,,2013-09-26 21:23:00,
2013-09-26 17:54:00,73.0,58.0,30.07,SE,126,0.0,3.0,59,0.00,,,0.00,,2013-09-26 21:54:00,
2013-09-26 18:24:00,72.0,59.0,30.08,SSW,211,1.0,2.0,63,0.00,,,0.00,,2013-09-26 22:24:00,
2013-09-26 18:54:00,72.0,60.0,30.09,West,263,0.0,2.0,65,0.00,,,0.00,,2013-09-26 22:54:00,
2013-09-26 19:12:00,72.0,61.0,30.09,West,263,0.0,0.0,69,0.00,,,0.00,,2013-09-26 23:12:00,
2013-09-26 19:23:00,69.0,60.0,30.09,West,263,0.0,1.0,74,0.00,,,0.00,,2013-09-26 23:23:00,
2013-09-26 19:53:00,64.0,58.0,30.09,West,263,0.0,0.0,81,0.00,,,0.00,,2013-09-26 23:53:00,
2013-09-26 20:22:00,61.0,57.0,30.10,West,263,0.0,0.0,86,0.00,,,0.00,,2013-09-27 00:22:00,
2013-09-26 20:43:00,60.0,56.0,30.10,West,263,0.0,0.0,87,0.00,,,0.00,,2013-09-27 00:43:00,
2013-09-26 20:52:00,59.0,55.0,30.11,West,263,0.0,0.0,88,0.00,,,0.00,,2013-09-27 00:52:00,
2013-09-26 21:12:00,59.0,56.0,30.11,West,263,0.0,0.0,89,0.00,,,0.00,,2013-09-27 01:12:00,
2013-09-26 21:23:00,58.0,55.0,30.12,West,263,0.0,0.0,90,0.00,,,0.00,,2013-09-27 01:23:00,
2013-09-26 21:42:00,58.0,55.0,30.12,West,263,0.0,0.0,90,0.00,,,0.00,,2013-09-27 01:42:00,
2013-09-26 21:52:00,57.0,54.0,30.13,West,263,0.0,0.0,91,0.00,,,0.00,,2013-09-27 01:52:00,
2013-09-26 22:22:00,56.0,54.0,30.13,West,263,0.0,0.0,92,0.00,,,0.00,,2013-09-27 02:22:00,
2013-09-26 22:43:00,56.0,54.0,30.14,West,263,0.0,0.0,92,0.00,,,0.00,,2013-09-27 02:43:00,
2013-09-26 22:53:00,56.0,54.0,30.14,West,263,0.0,0.0,92,0.00,,,0.00,,2013-09-27 02:53:00,
2013-09-26 23:22:00,56.0,54.0,30.14,West,263,0.0,0.0,93,0.00,,,0.00,,2013-09-27 03:22:00,
2013-09-26 23:55:00,56.0,54.0,30.15,West,263,0.0,0.0,92,0.00,,,0.00,,2013-09-27 03:55:00,